Tiempo atmosférico en la estación meteorológica de Calanda, Teruel (459 m.)

Fecha
DESCASC
Temp. máxima en grados centígrados (hora)
DESCASC
Temp. mínima en grados centígrados (hora)
DESCASC
Temp. media en grados centígrados
DESCASC
Racha de viento máxima en m/sg (hora)
DESCASC
Velocidad máxima media en intervalos de 10 minutos(hora)
DESCASC
Precipitaciones diarias en mm
DESCASC
Precipitaciones de 00:00 a 06:00 en mm
DESCASC
Precipitaciones de 06:00 a 12:00 en mm
DESCASC
Precipitaciones de 12:00 a 18:00 en mm
DESCASC
Precipitaciones de 18:00 a 24:00 en mm
DESCASC
23-11-2017 20.2 (16:10) 7.1 (08:20) 13.7 7.22 (07:10) 5 (07:10) 0 0 0 0 0
22-11-2017 17.1 (11:50) 5.3 (05:20) 11.2 7.22 (22:20) 4.72 (22:20) 0 0 0 0 0
21-11-2017 16.7 (16:10) 5.3 (23:10) 11 7.22 (05:10) 4.72 (05:10) 0 0 0 0 0
20-11-2017 17.6 (14:20) 5.2 (06:50) 11.4 8.06 (04:30) 5.83 (03:40) 0 0 0 0 0
19-11-2017 16 (15:30) 3.4 (00:00) 9.7 7.5 (08:20) 5.56 (23:30) 0 0 0 0 0
18-11-2017 16.1 (15:20) 5.4 (00:00) 10.8 10.28 (13:30) 5.28 (04:40) 0 0 0 0 0
17-11-2017 17.7 (14:10) 6.6 (00:00) 12.2 7.78 (21:00) 5.83 (21:20) 0 0 0 0 0
16-11-2017 14.4 (13:50) 2.1 (00:00) 8.2 8.33 (00:30) 6.11 (00:50) 0 0 0 0 0
15-11-2017 14 (14:10) 1.4 (00:00) 7.7 5.83 (05:40) 4.17 (04:30) 0 0 0 0 0
14-11-2017 12.7 (15:40) 4 (00:00) 8.3 11.94 (02:50) 6.39 (11:20) 0 0 0 0 0
13-11-2017 13.4 (00:00) 5.5 (00:00) 9.4 23.89 (08:20) 12.78 (08:30) 0 0 0 0 0
12-11-2017 17.8 (14:40) 9.7 (00:00) 13.7 16.67 (21:20) 9.72 (21:20) 0 0 0 0 0
11-11-2017 16.9 (15:10) 10.5 (00:00) 13.7 15.28 (09:50) 8.06 (09:40) 0 0 0 0 0
10-11-2017 14.7 (14:30) 5.1 (00:00) 9.9 15.28 (16:10) 7.78 (16:30) 0 0 0 0 0
09-11-2017 12 (14:40) 4.7 (00:00) 8.3 14.44 (13:30) 8.06 (13:30) 0 0 0 0 0
08-11-2017 13.1 (14:10) 5.6 (00:00) 9.4 16.67 (12:20) 9.44 (12:20) 0 0 0 0 0
07-11-2017 16 (16:40) 3.5 (00:00) 9.8 12.78 (20:30) 7.5 (00:10) 0 0 0 0 0
06-11-2017 12.7 (14:00) 6.5 (00:00) 9.6 -- (--) -- (--) 0 0 0 0 0
05-11-2017 14.5 (13:40) 9.1 (00:00) 11.8 -- (--) -- (--) 0 0 0 0 0
04-11-2017 19.2 (11:40) 12.2 (00:00) 15.7 -- (--) -- (--) 3.6 2.2 0.2 1.2 0
03-11-2017 19.6 (13:30) 9.7 (00:00) 14.7 -- (--) -- (--) 0 0 0 0 0
02-11-2017 19 (15:00) 10.8 (05:30) 14.9 -- (--) -- (--) 0 0 0 0 0
01-11-2017 20.3 (14:50) 8 (00:00) 14.1 -- (--) -- (--) 0 0 0 0 0
31-10-2017 17.2 (16:00) 6.1 (00:00) 11.7 5.83 (15:00) 3.33 (07:30) 0 0 0 0 0
30-10-2017 19.5 (14:50) 9.3 (00:00) 14.4 10.83 (14:10) 6.11 (15:00) 0 0 0 0 0
29-10-2017 19.7 (15:30) 7.1 (00:00) 13.4 8.61 (16:00) 5 (15:50) 0 0 0 0 0
28-10-2017 21 (16:30) 11.2 (00:00) 16.1 11.94 (03:20) 6.11 (03:50) 0 0 0 0 0
27-10-2017 24.5 (15:10) 14.7 (00:00) 19.6 15.56 (21:30) 8.89 (15:50) 0 0 0 0 0
26-10-2017 26.4 (16:40) 13.3 (00:00) 19.8 6.39 (23:59) 4.17 (09:00) 0 0 0 0 0
25-10-2017 24.9 (12:20) 12.7 (00:00) 18.8 6.94 (15:40) 3.89 (05:40) 0 0 0 0 0

Gráficas

Temp. máximas Temp. mínimas Temp. medias Precipitaciones Rachas de viento máximas Velocidades máximas media en intervalos de 10 minutos

Datos horarios

Fecha y hora oficial Temperatura (ºC) Velocidad del viento (km/h) Dirección del viento Racha (km/h) Dirección de racha Precipitación (mm) Presión (hPa) Tendencia (hPa) Humedad (%)
2017-11-23 23:00:00 13.3 14 Sudoeste 21 Sudoeste 0 965.2 0.4 28
2017-11-23 22:00:00 13.5 10 Sudoeste 19 Sudoeste 0 965.3 0.9 28
2017-11-23 21:00:00 11.9 5 Sur 11 Sudoeste 0 965.2 1.3 35
2017-11-23 20:00:00 11.1 3 Noroeste 13 Sudoeste 0 964.8 1.4 47
2017-11-23 19:00:00 12.6 3 Sur 10 Este 0 964.4 1.4 45
2017-11-23 18:00:00 14.6 7 Oeste 10 Oeste 0 963.9 1 36
2017-11-23 17:00:00 17.8 0 Calma 16 Sudoeste 0 963.4 0.3 29
2017-11-23 16:00:00 19.6 3 Nordeste 9 Norte 0 963 -0.5 25
2017-11-23 15:00:00 19.4 5 Norte 11 Noroeste 0 962.9 -1.1 25
2017-11-23 14:00:00 18.2 6 Norte 12 Nordeste 0 963.1 -0.7 28
2017-11-23 13:00:00 16.9 4 Este 13 Nordeste 0 963.5 0.5 28
2017-11-23 12:00:00 13.9 4 Norte 14 Norte 0 964 1.5 34
2017-11-23 11:00:00 15.8 7 Sudoeste 17 Sudoeste 0 963.8 1.3 26
2017-11-23 10:00:00 12 5 Sur 23 Sudoeste 0 963 1.1 34
2017-11-23 09:00:00 12.2 9 Sudoeste 17 Sudoeste 0 962.5 1 30
2017-11-23 08:00:00 7.8 7 Norte 26 Sudoeste 0 962.5 1.2 40
2017-11-23 07:00:00 9.9 13 Sudoeste 23 Sudoeste 0 961.9 0.6 33
2017-11-23 06:00:00 10.1 13 Sudoeste 23 Sudoeste 0 961.5 0.5 33
2017-11-23 05:00:00 9.1 17 Sudoeste 23 Sudoeste 0 961.3 0.8 37
2017-11-23 04:00:00 8.7 10 Sudoeste 19 Sudoeste 0 961.3 0.4 38
2017-11-23 03:00:00 9.3 15 Sudoeste 22 Sudoeste 0 961 0 34
2017-11-23 02:00:00 10 12 Sudoeste 21 Sudoeste 0 960.5 -0.4 36
2017-11-23 01:00:00 9.7 7 Sur 20 Sudoeste 0 960.9 0.4 37
2017-11-23 00:00:00 9.1 3 Sudoeste 17 Sudoeste 0 961 1 37
2017-11-22 23:00:00 8.8 6 Sudoeste 26 Oeste 0 960.9 1.1 38
2017-11-22 22:00:00 10.6 5 Oeste 16 Sudoeste 0 960.5 0.6 34
2017-11-22 21:00:00 12.4 9 Sur 23 Sudoeste 0 960 -0.1 31
2017-11-22 20:00:00 10.5 9 Sudoeste 15 Sur 0 959.8 -0.7 37
2017-11-22 19:00:00 8.2 4 Oeste 9 Noroeste 0 959.9 -0.9 42
2017-11-22 18:00:00 11.1 0 Calma 7 Este 0 960.1 -0.5 34
2017-11-22 17:00:00 15 0 Calma 12 Norte 0 960.5 -0.5 28
2017-11-22 16:00:00 15.4 8 Norte 15 Norte 0 960.8 -0.6 28
2017-11-22 15:00:00 15.8 9 Norte 18 Noroeste 0 960.6 -1.6 25
2017-11-22 14:00:00 16 9 Norte 15 Norte 0 961 -1.7 24
2017-11-22 13:00:00 16.1 5 Nordeste 14 Norte 0 961.4 -1.6 25
2017-11-22 12:00:00 16.5 2 Este 11 Sur 0 962.2 -0.9 22
2017-11-22 11:00:00 14.9 4 Sur 14 Sudoeste 0 962.7 0 24
2017-11-22 10:00:00 10.7 9 Sudoeste 14 Sudoeste 0 963 0.1 29
2017-11-22 09:00:00 8.3 9 Sudoeste 19 Sudoeste 0 963.1 -0.1 33
2017-11-22 08:00:00 6.1 13 Sudoeste 22 Sudoeste 0 962.7 -0.8 39
2017-11-22 07:00:00 5.6 13 Sudoeste 22 Sudoeste 0 962.9 -0.9 43
2017-11-22 06:00:00 5.9 15 Sudoeste 22 Sudoeste 0 963.2 -1.1 42
2017-11-22 05:00:00 5.7 10 Sudoeste 15 Sudoeste 0 963.5 -1.2 44
2017-11-22 04:00:00 6.2 11 Sudoeste 17 Sudoeste 0 963.8 -1.2 42
2017-11-22 03:00:00 6.3 12 Sudoeste 18 Sudoeste 0 964.3 -1.1 42
2017-11-22 02:00:00 5.9 6 Sudoeste 15 Sudoeste 0 964.7 -0.7 42
2017-11-22 01:00:00 6.5 7 Sudoeste 17 Sudoeste 0 965 -0.3 42
2017-11-22 00:00:00 6.8 9 Sudoeste 15 Sudoeste 0 965.4 0 41
2017-11-21 23:00:00 5.6 2 Noroeste 12 Sudoeste 0 965.4 -0.3 45
2017-11-21 22:00:00 7.7 8 Sudoeste 14 Sudoeste 0 965.3 -0.6 40
2017-11-21 21:00:00 7.9 12 Sudoeste 17 Sudoeste 0 965.4 -0.4 41
2017-11-21 20:00:00 6.2 3 Sudoeste 9 Oeste 0 965.7 -0.2 45
2017-11-21 19:00:00 7.7 5 Oeste 9 Oeste 0 965.9 0 41
2017-11-21 18:00:00 11.6 3 Oeste 6 Norte 0 965.8 -0.6 32
2017-11-21 17:00:00 15.5 3 Norte 10 Norte 0 965.9 -1.2 27
2017-11-21 16:00:00 16.6 4 Norte 9 Norte 0 965.9 -1.8 23
2017-11-21 15:00:00 16.3 3 Norte 12 Nordeste 0 966.4 -2 24
2017-11-21 14:00:00 15.1 6 Norte 10 Norte 0 967.1 -1.5 25
2017-11-21 13:00:00 14.5 6 Norte 12 Noroeste 0 967.7 -0.8 27
2017-11-21 12:00:00 13.6 7 Norte 12 Norte 0 968.4 0.1 28
2017-11-21 11:00:00 14.7 3 Sudeste 13 Sudoeste 0 968.6 0.5 25
2017-11-21 10:00:00 10.8 10 Sudoeste 18 Sudoeste 0 968.5 0.7 30
2017-11-21 09:00:00 8 10 Sudoeste 21 Sudoeste 0 968.3 0.5 34
2017-11-21 08:00:00 5.8 15 Sudoeste 21 Sudoeste 0 968.1 0.5 40
2017-11-21 07:00:00 6.3 13 Sudoeste 19 Sudoeste 0 967.8 0 37
2017-11-21 06:00:00 6.1 9 Sudoeste 26 Sudoeste 0 967.8 -0.5 39
2017-11-21 05:00:00 6.4 15 Sudoeste 25 Sudoeste 0 967.6 -0.7 39
2017-11-21 04:00:00 6.2 15 Sudoeste 22 Sudoeste 0 967.8 -0.7 38
2017-11-21 03:00:00 6.5 10 Sudoeste 18 Sudoeste 0 968.3 -0.2 38
2017-11-21 02:00:00 6.8 13 Sudoeste 23 Sudoeste 0 968.3 -0.2 38
2017-11-21 01:00:00 7.3 14 Sudoeste 21 Sudoeste 0 968.5 -0.1 35
2017-11-21 00:00:00 7.4 12 Sudoeste 18 Sudoeste 0 968.5 0 38
2017-11-20 23:00:00 6.9 10 Sudoeste 16 Sudoeste 0 968.5 0.2 40
2017-11-20 22:00:00 7.2 12 Sudoeste 17 Sudoeste 0 968.6 0.7 40
2017-11-20 21:00:00 6 4 Oeste 9 Oeste 0 968.5 0.9 45
2017-11-20 20:00:00 6.4 5 Oeste 7 Oeste 0 968.3 0.8 43
2017-11-20 19:00:00 7.6 3 Oeste 5 Oeste 0 967.9 0.5 38
2017-11-20 18:00:00 11.6 3 Oeste 8 Norte 0 967.6 0 30
2017-11-20 17:00:00 15.1 4 Norte 14 Nordeste 0 967.5 -0.7 25
2017-11-20 16:00:00 16.2 7 Norte 15 Nordeste 0 967.4 -1.5 23
2017-11-20 15:00:00 16.9 7 Norte 15 Nordeste 0 967.6 -2.1 21
2017-11-20 14:00:00 17.4 3 Nordeste 11 Nordeste 0 968.2 -2 19
2017-11-20 13:00:00 16.6 3 Nordeste 11 Nordeste 0 968.9 -0.8 21
2017-11-20 12:00:00 15.5 4 Este 9 Sudeste 0 969.7 0.5 21
2017-11-20 11:00:00 12.8 5 Sudoeste 14 Sudoeste 0 970.2 1.3 24
2017-11-20 10:00:00 9.7 10 Sudoeste 19 Sudoeste 0 969.7 1.1 29
2017-11-20 09:00:00 7.1 14 Sudoeste 20 Sudoeste 0 969.2 0.6 33
2017-11-20 08:00:00 5.2 14 Sudoeste 22 Sudoeste 0 968.9 0.4 39
2017-11-20 07:00:00 5.2 12 Sudoeste 18 Sudoeste 0 968.6 0 39
2017-11-20 06:00:00 5.3 11 Sudoeste 22 Sudoeste 0 968.6 -0.1 41
2017-11-20 05:00:00 5.5 15 Sudoeste 29 Sudoeste 0 968.5 -0.2 42
2017-11-20 04:00:00 5.8 19 Sudoeste 27 Sudoeste 0 968.6 -0.2 39
2017-11-20 03:00:00 5.9 19 Sudoeste 27 Sudoeste 0 968.7 -0.2 39
2017-11-20 02:00:00 6.6 17 Sudoeste 26 Sudoeste 0 968.7 0.1 38
2017-11-20 01:00:00 7.2 18 Sudoeste 24 Sudoeste 0 968.8 0.4 39
2017-11-20 00:00:00 7.8 15 Sudoeste 27 Sudoeste 0 968.9 0.7 38
2017-11-19 23:00:00 8.3 19 Sudoeste 26 Sudoeste 0 968.6 0.6 33
2017-11-19 22:00:00 9.1 17 Sudoeste 23 Sudoeste 0 968.4 0.9 33
2017-11-19 21:00:00 8.6 16 Sudoeste 23 Sudoeste 0 968.2 1.3 41
2017-11-19 20:00:00 8.3 11 Sudoeste 15 Sudoeste 0 968 1.1 46
2017-11-19 19:00:00 7.9 10 Oeste 14 Oeste 0 967.5 0.8 47
2017-11-19 18:00:00 10.8 0 Calma 5 Sur 0 966.9 0.2 37
2017-11-19 17:00:00 14.5 3 Norte 11 Norte 0 966.9 -0.3 31
2017-11-19 16:00:00 15 8 Norte 13 Norte 0 966.7 -1.2 30
2017-11-19 15:00:00 15.4 4 Nordeste 18 Norte 0 966.7 -1.6 32
2017-11-19 14:00:00 14.6 8 Norte 15 Norte 0 967.2 -1.6 34
2017-11-19 13:00:00 14 4 Norte 12 Nordeste 0 967.9 -0.9 36
2017-11-19 12:00:00 14.1 4 Sudeste 11 Sudeste 0 968.3 -0.3 37
2017-11-19 11:00:00 11 6 Sur 17 Sudoeste 0 968.8 0.9 45
2017-11-19 10:00:00 7.6 10 Sudoeste 22 Sur 0 968.8 1.3 54
2017-11-19 09:00:00 5.2 13 Sudoeste 27 Sudoeste 0 968.6 0.9 64
2017-11-19 08:00:00 3.4 12 Sudoeste 23 Sudoeste 0 967.9 0.2 75
2017-11-19 07:00:00 3.9 14 Sudoeste 21 Sudoeste 0 967.5 -0.3 74
2017-11-19 06:00:00 4.5 15 Sudoeste 22 Sudoeste 0 967.7 -0.1 72
2017-11-19 05:00:00 4.8 13 Sudoeste 20 Sudoeste 0 967.7 0.2 73
2017-11-19 04:00:00 4.5 6 Sudoeste 15 Sudoeste 0 967.8 0.1 77
2017-11-19 03:00:00 5.5 9 Sudoeste 20 Sudoeste 0 967.8 -0.2 72
2017-11-19 02:00:00 6.5 9 Sudoeste 18 Sudoeste 0 967.5 -0.6 70
2017-11-19 01:00:00 7.8 10 Sudoeste 18 Sudoeste 0 967.7 -0.1 66
2017-11-19 00:00:00 8.5 10 Sudoeste 20 Sudoeste 0 968 0.4 65
2017-11-18 23:00:00 8.8 10 Sudoeste 20 Sudoeste 0 968.1 0.9 63
2017-11-18 22:00:00 8.6 12 Sudoeste 23 Sudoeste 0 967.8 1 61
2017-11-18 21:00:00 8.6 12 Sudoeste 18 Sudoeste 0 967.6 1.3 60
2017-11-18 20:00:00 8.1 9 Oeste 14 Sudoeste 0 967.2 1.2 62
2017-11-18 19:00:00 9.3 6 Oeste 10 Oeste 0 966.8 1.1 57
2017-11-18 18:00:00 11.6 2 Oeste 12 Nordeste 0 966.3 0.5 47
2017-11-18 17:00:00 14.7 7 Norte 19 Noroeste 0 966 -0.3 42
2017-11-18 16:00:00 15.7 12 Norte 22 Norte 0 965.7 -1 38
2017-11-18 15:00:00 15.5 7 Norte 23 Noroeste 0 965.8 -1.3 39
2017-11-18 14:00:00 15.1 9 Norte 37 Noroeste 0 966.3 -0.8 39
2017-11-18 13:00:00 14.9 16 Noroeste 26 Noroeste 0 966.7 -0.4 34
2017-11-18 12:00:00 14.5 9 Oeste 21 Noroeste 0 967.1 0.2 33
2017-11-18 11:00:00 13.2 12 Noroeste 27 Noroeste 0 967.1 0.6 36
2017-11-18 10:00:00 10.8 12 Sudoeste 21 Sudoeste 0 967.1 0.8 42
2017-11-18 09:00:00 7.5 15 Sudoeste 22 Sudoeste 0 966.9 0.7 51
2017-11-18 08:00:00 5.4 13 Sudoeste 24 Sudoeste 0 966.5 0.4 57
2017-11-18 07:00:00 7 16 Sudoeste 26 Sudoeste 0 966.3 0.3 52
2017-11-18 06:00:00 6.3 13 Sudoeste 20 Sudoeste 0 966.2 0.2 55
2017-11-18 05:00:00 6.8 13 Sudoeste 26 Sudoeste 0 966.1 -0.2 53
2017-11-18 04:00:00 7.3 16 Sudoeste 26 Sudoeste 0 966 -0.5 52
2017-11-18 03:00:00 7 16 Sudoeste 22 Sudoeste 0 966 -0.4 51
2017-11-18 02:00:00 7.6 5 Sudoeste 17 Sudoeste 0 966.3 0 48
2017-11-18 01:00:00 8.4 5 Sudoeste 23 Sudoeste 0 966.5 0.6 45
2017-11-18 00:00:00 9.6 15 Sudoeste 28 Sudoeste 0 966.4 0.8 41
2017-11-17 23:00:00 10.1 12 Sudoeste 22 Sudoeste 0 966.3 0.7 40
2017-11-17 22:00:00 10.9 12 Sudoeste 28 Sudoeste 0 965.9 0.6 38
2017-11-17 21:00:00 11.1 19 Sudoeste 28 Sudoeste 0 965.6 0.6 38
2017-11-17 20:00:00 10.2 10 Sudoeste 21 Sudoeste 0 965.6 0.6 41
2017-11-17 19:00:00 9.6 4 Sudoeste 12 Oeste 0 965.3 0.3 41
2017-11-17 18:00:00 12.5 2 Sudoeste 8 Norte 0 965 -0.3 33
2017-11-17 17:00:00 16.3 4 Norte 10 Norte 0 965 -0.8 27
2017-11-17 16:00:00 16.9 5 Nordeste 15 Norte 0 965 -1.6 26
2017-11-17 15:00:00 17.3 6 Norte 17 Noroeste 0 965.3 -2 25
2017-11-17 14:00:00 17 6 Norte 14 Norte 0 965.8 -1.5 25
2017-11-17 13:00:00 16.5 7 Norte 22 Noroeste 0 966.6 -0.7 26
2017-11-17 12:00:00 16.2 11 Noroeste 21 Norte 0 967.3 0.1 26
2017-11-17 11:00:00 15 11 Oeste 21 Noroeste 0 967.3 0.6 29
2017-11-17 10:00:00 12.3 12 Sudoeste 20 Sudoeste 0 967.3 1.1 34
2017-11-17 09:00:00 9 15 Sudoeste 23 Sudoeste 0 967.2 1.2 42
2017-11-17 08:00:00 7 14 Sudoeste 26 Sudoeste 0 966.7 0.6 48
2017-11-17 07:00:00 7.4 17 Sudoeste 26 Sudoeste 0 966.2 -0.1 46
2017-11-17 06:00:00 7.1 17 Sudoeste 26 Sudoeste 0 966 -0.4 47
2017-11-17 05:00:00 7.3 16 Sudoeste 21 Sudoeste 0 966.1 0 46
2017-11-17 04:00:00 7.2 13 Sudoeste 19 Sudoeste 0 966.3 -0.2 46
2017-11-17 03:00:00 7.9 15 Sudoeste 19 Sudoeste 0 966.4 -0.1 45
2017-11-17 02:00:00 8.1 15 Sudoeste 24 Sudoeste 0 966.1 -0.4 44
2017-11-17 01:00:00 8.6 15 Sudoeste 21 Sudoeste 0 966.5 0.1 42
2017-11-17 00:00:00 7.8 7 Sur 19 Sudoeste 0 966.5 0.3 43
2017-11-16 23:00:00 7.7 14 Sudoeste 24 Sudoeste 0 966.5 0.5 40
2017-11-16 22:00:00 7.9 12 Sudoeste 22 Sudoeste 0 966.4 0.4 39
2017-11-16 21:00:00 7.6 6 Sur 13 Sudoeste 0 966.2 0.6 41
2017-11-16 20:00:00 6.3 6 Sudoeste 11 Sudoeste 0 966 0.4 47
2017-11-16 19:00:00 6.8 3 Sudoeste 11 Oeste 0 966 0.6 42
2017-11-16 18:00:00 10.2 3 Oeste 9 Norte 0 965.6 0 33
2017-11-16 17:00:00 13.2 5 Norte 12 Nordeste 0 965.6 -0.3 28
2017-11-16 16:00:00 14.2 4 Nordeste 13 Noroeste 0 965.4 -0.9 27
2017-11-16 15:00:00 13.9 6 Norte 16 Noroeste 0 965.6 -1.5 27
2017-11-16 14:00:00 14.1 5 Norte 14 Norte 0 965.9 -1.2 27
2017-11-16 13:00:00 13.1 6 Norte 12 Nordeste 0 966.3 -0.4 29
2017-11-16 12:00:00 12.6 4 Nordeste 9 Nordeste 0 967.1 0.9 30
2017-11-16 11:00:00 12.1 3 Este 8 Sudeste 0 967.1 1.3 29
2017-11-16 10:00:00 9.5 4 Sudoeste 12 Sudoeste 0 966.7 1.4 34
2017-11-16 09:00:00 6.1 9 Sudoeste 20 Sudoeste 0 966.2 1.1 43
2017-11-16 08:00:00 3.9 14 Sudoeste 20 Sudoeste 0 965.8 1 48
2017-11-16 07:00:00 3.7 9 Sudoeste 16 Sudoeste 0 965.3 0.3 49
2017-11-16 06:00:00 3.1 12 Sudoeste 16 Sudoeste 0 965.1 0 50
2017-11-16 05:00:00 2.4 2 Sudoeste 10 Oeste 0 964.8 -0.1 50
2017-11-16 04:00:00 3.1 5 Oeste 14 Oeste 0 965 0.3 47
2017-11-16 03:00:00 5.1 8 Oeste 14 Oeste 0 965.1 0.2 42
2017-11-16 02:00:00 6.1 10 Sudoeste 25 Sudoeste 0 964.9 -0.2 39
2017-11-16 01:00:00 6.4 17 Sudoeste 30 Sudoeste 0 964.7 -0.3 38
2017-11-16 00:00:00 6.1 14 Sudoeste 21 Sudoeste 0 964.9 0.3 40
2017-11-15 23:00:00 5.5 14 Sudoeste 19 Sudoeste 0 965.1 0.8 42
2017-11-15 22:00:00 4.3 3 Oeste 9 Sudoeste 0 965 1 45
2017-11-15 21:00:00 5.1 3 Oeste 9 Sudoeste 0 964.6 0.9 42
2017-11-15 20:00:00 5.7 4 Sudoeste 6 Sudoeste 0 964.3 0.8 41
2017-11-15 19:00:00 6.9 4 Oeste 7 Oeste 0 964 0.3 38
2017-11-15 18:00:00 10.2 0 Calma 6 Norte 0 963.7 0 31
2017-11-15 17:00:00 12.3 3 Nordeste 17 Norte 0 963.5 -0.8 26
2017-11-15 16:00:00 12.9 5 Norte 60 Noroeste 0 963.7 -1.3 24
2017-11-15 15:00:00 13.4 7 Norte 13 Norte 0 963.7 -2.4 24
2017-11-15 14:00:00 13.7 4 Nordeste 12 Sudeste 0 964.3 -2.2 24
2017-11-15 13:00:00 13.1 4 Nordeste 11 Este 0 965 -1.5 25
2017-11-15 12:00:00 12.4 3 Este 12 Sudoeste 0 966.1 -0.4 26
2017-11-15 11:00:00 8.5 6 Sur 17 Sudoeste 0 966.5 0.2 32
2017-11-15 10:00:00 6 10 Sudoeste 19 Sur 0 966.5 0.2 40
2017-11-15 09:00:00 3.3 12 Sudoeste 21 Sudoeste 0 966.5 0.5 46
2017-11-15 08:00:00 1.7 14 Sudoeste 21 Sudoeste 0 966.3 0.2 51
2017-11-15 07:00:00 1.7 14 Sudoeste 21 Sudoeste 0 966.3 -0.3 52
2017-11-15 06:00:00 1.4 13 Sudoeste 21 Sudoeste 0 966 -0.9 54
2017-11-15 05:00:00 2.2 10 Sudoeste 20 Sudoeste 0 966.1 -1 52
2017-11-15 04:00:00 2.9 14 Sudoeste 19 Sudoeste 0 966.6 -0.6 51
2017-11-15 03:00:00 3.2 8 Sudoeste 15 Oeste 0 966.9 -0.1 50
2017-11-15 02:00:00 4.6 8 Sudoeste 18 Oeste 0 967.1 0.1 46
2017-11-15 01:00:00 4 8 Oeste 17 Sudoeste 0 967.2 0.2 48
2017-11-15 00:00:00 5.5 10 Sudoeste 21 Sudoeste 0 967 0.6 44
2017-11-14 23:00:00 6.1 11 Sudoeste 20 Oeste 0 967 0.8 41
2017-11-14 22:00:00 6.7 12 Sudoeste 21 Sudoeste 0 967 1.2 41
2017-11-14 21:00:00 5.8 10 Sudoeste 15 Sudoeste 0 966.4 1.3 42
2017-11-14 20:00:00 5.9 7 Sudoeste 14 Oeste 0 966.2 1.7 42
2017-11-14 19:00:00 6.6 6 Oeste 10 Oeste 0 965.8 1.3 39
2017-11-14 18:00:00 9.5 3 Noroeste 21 Noroeste 0 965.1 0.4 32
2017-11-14 17:00:00 11.9 15 Oeste 34 Noroeste 0 964.5 -0.5 27
2017-11-14 16:00:00 12.5 19 Noroeste 35 Noroeste 0 964.5 -1 26
2017-11-14 15:00:00 12.5 18 Noroeste 35 Noroeste 0 964.7 -1.2 27
2017-11-14 14:00:00 12.1 18 Noroeste 34 Noroeste 0 965 -1.2 28
2017-11-14 13:00:00 11.6 17 Noroeste 37 Noroeste 0 965.5 -0.6 29
2017-11-14 12:00:00 10.3 20 Noroeste 36 Noroeste 0 965.9 0 31
2017-11-14 11:00:00 9.1 21 Noroeste 37 Noroeste 0 966.2 0.4 33
2017-11-14 10:00:00 7.8 18 Oeste 32 Oeste 0 966.1 0.7 37
2017-11-14 09:00:00 6.1 17 Oeste 27 Oeste 0 965.9 0.8 44
2017-11-14 08:00:00 4.2 11 Oeste 22 Oeste 0 965.8 0.9 51
2017-11-14 07:00:00 4 11 Oeste 22 Sudoeste 0 965.4 0.4 54
2017-11-14 06:00:00 4.5 13 Oeste 31 Oeste 0 965.1 -0.4 54
2017-11-14 05:00:00 4.9 19 Oeste 39 Oeste 0 964.9 -0.5 52
2017-11-14 04:00:00 5 19 Oeste 37 Oeste 0 965 -0.7 51
2017-11-14 03:00:00 5.2 21 Oeste 43 Oeste 0 965.5 -0.4 54
2017-11-14 02:00:00 5.3 23 Oeste 41 Oeste 0 965.4 -0.4 53
2017-11-14 01:00:00 5.4 19 Oeste 42 Oeste 0 965.7 0.4 54
2017-11-14 00:00:00 5.5 21 Oeste 49 Oeste 0 965.9 0.4 54
2017-11-13 23:00:00 5.7 21 Oeste 52 Noroeste 0 965.8 -0.5 54
2017-11-13 22:00:00 5.9 29 Oeste 54 Oeste 0 965.3 -0.6 53
2017-11-13 21:00:00 6 24 Oeste 47 Oeste 0 965.5 0.4 50
2017-11-13 20:00:00 6.3 20 Oeste 40 Oeste 0 966.3 2.1 44
2017-11-13 19:00:00 6.8 19 Oeste 45 Oeste 0 965.9 2 42
2017-11-13 18:00:00 7.8 17 Oeste 46 Oeste 0 965.1 2 38
2017-11-13 17:00:00 9.4 24 Noroeste 52 Oeste 0 964.2 0.7 32
2017-11-13 16:00:00 10.6 24 Noroeste 55 Noroeste 0 963.9 0.3 28
2017-11-13 15:00:00 10.7 31 Noroeste 56 Noroeste 0 963.1 -0.7 29
2017-11-13 14:00:00 10.8 31 Noroeste 62 Noroeste 0 963.5 0.3 31
2017-11-13 13:00:00 10.4 36 Noroeste 69 Noroeste 0 963.6 1.1 31
2017-11-13 12:00:00 9.7 42 Noroeste 72 Noroeste 0 963.8 1.8 34
2017-11-13 11:00:00 9.5 40 Noroeste 74 Noroeste 0 963.2 2 39
2017-11-13 10:00:00 9.1 41 Noroeste 78 Noroeste 0 962.5 2 45
2017-11-13 09:00:00 8.4 35 Noroeste 86 Oeste 0 962 0.5 58
2017-11-13 08:00:00 8.1 39 Oeste 81 Oeste 0 961.2 0.3 60
2017-11-13 07:00:00 9.2 42 Oeste 85 Oeste 0 960.5 -0.6 54
2017-11-13 06:00:00 9.7 28 Noroeste 69 Oeste 0 961.5 0 53
2017-11-13 05:00:00 10 33 Noroeste 62 Noroeste 0 960.9 -0.1 56
2017-11-13 04:00:00 10.9 37 Noroeste 70 Noroeste 0 961.1 -0.1 52
2017-11-13 03:00:00 12 37 Noroeste 71 Oeste 0 961.5 -0.5 57
2017-11-13 02:00:00 13.2 37 Noroeste 70 Oeste 0 961 -1.3 60
2017-11-13 01:00:00 13.3 37 Oeste 68 Noroeste 0 961.2 -1.5 58
2017-11-13 00:00:00 13.4 20 Oeste 57 Noroeste 0 962 -0.5 59
2017-11-12 23:00:00 13.8 28 Oeste 57 Noroeste 0 962.3 -0.8 58
2017-11-12 22:00:00 13.7 24 Oeste 60 Oeste 0 962.7 -0.5 59
2017-11-12 21:00:00 13.7 22 Oeste 47 Oeste 0 962.5 -0.5 55
2017-11-12 20:00:00 13.9 24 Oeste 42 Oeste 0 963.1 -0.4 53
2017-11-12 19:00:00 13.6 20 Oeste 42 Oeste 0 963.2 -0.6 53
2017-11-12 18:00:00 14.3 17 Noroeste 44 Noroeste 0 963 -0.7 50
2017-11-12 17:00:00 16 22 Noroeste 49 Noroeste 0 963.5 -0.6 46
2017-11-12 16:00:00 17 35 Noroeste 58 Noroeste 0 963.8 -1.5 42
2017-11-12 15:00:00 17.5 30 Noroeste 55 Noroeste 0 963.7 -2.8 39
2017-11-12 14:00:00 17.4 25 Oeste 45 Oeste 0 964.1 -3.3 40
2017-11-12 13:00:00 16.9 21 Noroeste 45 Noroeste 0 965.3 -2.4 41
2017-11-12 12:00:00 15.7 30 Oeste 54 Oeste 0 966.5 -1.3 45
2017-11-12 11:00:00 14.5 30 Oeste 56 Oeste 0 967.4 -0.3 49
2017-11-12 10:00:00 13 19 Oeste 40 Oeste 0 967.7 0 53
2017-11-12 09:00:00 11.3 14 Oeste 33 Oeste 0 967.8 0 58
2017-11-12 08:00:00 9.7 13 Sudoeste 29 Oeste 0 967.7 -0.1 62
2017-11-12 07:00:00 10.1 15 Sudoeste 29 Oeste 0 967.7 -0.5 60
2017-11-12 06:00:00 10 10 Oeste 27 Sudoeste 0 967.8 -0.7 62
2017-11-12 05:00:00 10.4 18 Oeste 30 Oeste 0 967.8 -1 60
2017-11-12 04:00:00 10.8 12 Sudoeste 32 Oeste 0 968.2 -1.4 59
2017-11-12 03:00:00 10.5 12 Sudoeste 25 Sudoeste 0 968.5 -1.5 62
2017-11-12 02:00:00 9.8 10 Sudoeste 22 Sudoeste 0 968.8 -1.1 64
2017-11-12 01:00:00 10.5 12 Sudoeste 23 Sudoeste 0 969.6 -1.1 61
2017-11-12 00:00:00 10.5 8 Sudoeste 20 Oeste 0 970 -0.6 61
2017-11-11 23:00:00 11 9 Sudoeste 36 Oeste 0 969.9 -0.7 59
2017-11-11 22:00:00 11 10 Oeste 28 Sudoeste 0 970.7 0.1 60
2017-11-11 21:00:00 11.9 12 Oeste 29 Oeste 0 970.6 0.4 57
2017-11-11 20:00:00 12.4 13 Oeste 25 Oeste 0 970.6 0.5 55
2017-11-11 19:00:00 13.2 14 Oeste 35 Noroeste 0 970.6 0.5 53
2017-11-11 18:00:00 14.4 17 Noroeste 40 Noroeste 0 970.2 0.2 51
2017-11-11 17:00:00 15.7 22 Noroeste 44 Noroeste 0 970.1 -0.4 48
2017-11-11 16:00:00 16.4 24 Noroeste 44 Oeste 0 970.1 -1 47
2017-11-11 15:00:00 16.2 23 Noroeste 44 Norte 0 970 -1.8 46
2017-11-11 14:00:00 16 23 Noroeste 45 Noroeste 0 970.5 -1.5 48
2017-11-11 13:00:00 15.9 23 Noroeste 52 Noroeste 0 971.1 -0.7 49
2017-11-11 12:00:00 15.4 28 Noroeste 55 Noroeste 0 971.8 0 52
2017-11-11 11:00:00 14.7 27 Noroeste 51 Noroeste 0 972 0.4 54
2017-11-11 10:00:00 13.4 27 Oeste 55 Oeste 0 971.8 0.2 60
2017-11-11 09:00:00 12 25 Oeste 48 Oeste 0 971.8 0.3 65
2017-11-11 08:00:00 11.4 23 Oeste 43 Oeste 0 971.6 0.1 67
2017-11-11 07:00:00 11.1 19 Oeste 49 Noroeste 0 971.6 0.2 67
2017-11-11 06:00:00 11.1 24 Oeste 46 Oeste 0 971.5 -0.1 66
2017-11-11 05:00:00 10.9 22 Oeste 49 Oeste 0 971.5 -0.3 67
2017-11-11 04:00:00 11.1 24 Oeste 49 Noroeste 0 971.4 -0.5 66
2017-11-11 03:00:00 10.9 23 Oeste 45 Oeste 0 971.6 -0.6 68
2017-11-11 02:00:00 11.1 26 Oeste 49 Oeste 0 971.8 -0.9 68
2017-11-11 01:00:00 11.4 20 Oeste 45 Oeste 0 971.9 -0.7 66
2017-11-11 00:00:00 11.4 16 Noroeste 33 Oeste 0 972.2 -0.2 69
2017-11-10 23:00:00 11.8 13 Oeste 37 Oeste 0 972.7 0.5 71
2017-11-10 22:00:00 11.7 10 Oeste 35 Oeste 0 972.6 0.8 72
2017-11-10 21:00:00 12.2 17 Noroeste 46 Noroeste 0 972.4 0.9 67
2017-11-10 20:00:00 12.6 18 Oeste 47 Oeste 0 972.2 0.8 65
2017-11-10 19:00:00 12.5 19 Oeste 36 Noroeste 0 971.8 0.7 62
2017-11-10 18:00:00 13.1 23 Noroeste 44 Noroeste 0 971.5 0.5 59
2017-11-10 17:00:00 14.1 24 Noroeste 55 Noroeste 0 971.4 0 53
2017-11-10 16:00:00 14.3 25 Noroeste 45 Noroeste 0 971.1 -0.6 52
2017-11-10 15:00:00 14.3 21 Noroeste 38 Noroeste 0 971 -1.6 51
2017-11-10 14:00:00 14.1 18 Noroeste 41 Norte 0 971.4 -1.4 51
2017-11-10 13:00:00 13.2 22 Noroeste 42 Noroeste 0 971.7 -0.8 54
2017-11-10 12:00:00 12.9 17 Noroeste 38 Noroeste 0 972.6 0.5 51
2017-11-10 11:00:00 11 21 Noroeste 39 Noroeste 0 972.8 1.2 53
2017-11-10 10:00:00 9.8 19 Noroeste 34 Noroeste 0 972.5 1.4 55
2017-11-10 09:00:00 7.8 11 Oeste 20 Sudoeste 0 972.1 0.3 59
2017-11-10 08:00:00 5.9 11 Sudoeste 22 Oeste 0 971.6 0.1 65
2017-11-10 07:00:00 5.4 10 Sudoeste 20 Sudoeste 0 971.1 -0.8 66
2017-11-10 06:00:00 5.7 10 Sudoeste 24 Sudoeste 0 971.8 0.2 66
2017-11-10 05:00:00 5.9 11 Oeste 28 Oeste 0 971.5 -0.1 66
2017-11-10 04:00:00 5.9 11 Oeste 28 Oeste 0 971.9 0.1 66
2017-11-10 03:00:00 6 13 Sudoeste 23 Sudoeste 0 971.6 -0.2 67
2017-11-10 02:00:00 6.7 13 Oeste 35 Oeste 0 971.6 0.1 64
2017-11-10 01:00:00 6.9 19 Oeste 39 Oeste 0 971.8 0.6 64
2017-11-10 00:00:00 7.1 21 Oeste 39 Oeste 0 971.8 1.1 64
2017-11-09 23:00:00 7.3 20 Oeste 45 Oeste 0 971.5 1 65
2017-11-09 22:00:00 7.6 26 Oeste 47 Oeste 0 971.2 1.2 65
2017-11-09 21:00:00 7.8 23 Oeste 48 Oeste 0 970.7 1.1 63
2017-11-09 20:00:00 8 22 Oeste 44 Oeste 0 970.5 1.5 63
2017-11-09 19:00:00 8.5 20 Oeste 47 Oeste 0 970 1.2 60
2017-11-09 18:00:00 9.7 26 Noroeste 49 Oeste 0 969.6 1.1 54
2017-11-09 17:00:00 10.6 22 Noroeste 47 Noroeste 0 969 0.2 50
2017-11-09 16:00:00 11.2 23 Noroeste 48 Oeste 0 968.8 -0.6 48
2017-11-09 15:00:00 11.7 25 Noroeste 46 Noroeste 0 968.5 -1.6 45
2017-11-09 14:00:00 10.9 26 Noroeste 52 Noroeste 0 968.8 -1 47
2017-11-09 13:00:00 11.1 28 Noroeste 47 Oeste 0 969.4 -0.3 47
2017-11-09 12:00:00 10 24 Noroeste 48 Noroeste 0 970.1 0.3 51
2017-11-09 11:00:00 9.4 24 Noroeste 49 Noroeste 0 969.8 0.7 54
2017-11-09 10:00:00 8.2 21 Noroeste 43 Oeste 0 969.7 0.9 58
2017-11-09 09:00:00 7 17 Noroeste 30 Oeste 0 969.8 1.3 62
2017-11-09 08:00:00 7 17 Oeste 33 Oeste 0 969.1 0.6 61
2017-11-09 07:00:00 6.8 17 Oeste 37 Oeste 0 968.8 0.1 61
2017-11-09 06:00:00 6.7 20 Oeste 39 Noroeste 0 968.5 -0.4 60
2017-11-09 05:00:00 5.6 9 Sudoeste 22 Sudoeste 0 968.5 -0.4 63
2017-11-09 04:00:00 5.2 10 Sudoeste 23 Sudoeste 0 968.7 -0.1 63
2017-11-09 03:00:00 4.8 10 Oeste 26 Oeste 0 968.9 -0.1 64
2017-11-09 02:00:00 5.3 13 Oeste 31 Oeste 0 968.9 -0.4 62
2017-11-09 01:00:00 5.4 13 Oeste 34 Oeste 0 968.8 0.1 61
2017-11-09 00:00:00 5.7 16 Oeste 34 Oeste 0 969 0.9 64
2017-11-08 23:00:00 6 10 Oeste 42 Oeste 0 969.3 1.2 63
2017-11-08 22:00:00 6.6 22 Oeste 47 Noroeste 0 968.7 1.4 62
2017-11-08 21:00:00 7.1 20 Oeste 47 Oeste 0 968.1 1.2 61
2017-11-08 20:00:00 7.8 22 Oeste 42 Noroeste 0 968.1 1.1 59
2017-11-08 19:00:00 8.9 14 Oeste 55 Noroeste 0 967.3 0.8 51
2017-11-08 18:00:00 9.8 23 Oeste 42 Oeste 0 966.9 0.2 51
2017-11-08 17:00:00 10.7 28 Noroeste 48 Noroeste 0 967 0.3 45
2017-11-08 16:00:00 11.1 30 Noroeste 55 Noroeste 0 966.5 -0.3 44
2017-11-08 15:00:00 12.2 28 Oeste 53 Noroeste 0 966.7 -0.8 41
2017-11-08 14:00:00 13 30 Noroeste 53 Noroeste 0 966.7 -0.9 37
2017-11-08 13:00:00 12.7 28 Noroeste 60 Oeste 0 966.8 -0.8 40
2017-11-08 12:00:00 11.9 30 Noroeste 59 Noroeste 0 967.5 0.1 45
2017-11-08 11:00:00 10.7 29 Noroeste 53 Oeste 0 967.6 0.8 49
2017-11-08 10:00:00 10.7 27 Noroeste 58 Noroeste 0 967.6 1 50
2017-11-08 09:00:00 9.8 30 Noroeste 49 Noroeste 0 967.4 1.4 56
2017-11-08 08:00:00 9 24 Oeste 49 Noroeste 0 966.8 1 60
2017-11-08 07:00:00 9.3 32 Oeste 58 Oeste 0 966.6 0.7 59
2017-11-08 06:00:00 9.4 30 Oeste 53 Oeste 0 966 0.1 60
2017-11-08 05:00:00 9.9 26 Oeste 58 Oeste 0 965.8 0.1 60
2017-11-08 04:00:00 10.8 25 Oeste 52 Oeste 0 965.9 0.2 60
2017-11-08 03:00:00 10.9 16 Noroeste 36 Noroeste 0 965.9 0.6 61
2017-11-08 02:00:00 10 10 Oeste 24 Sudoeste 0 965.7 0.4 59
2017-11-08 01:00:00 9.6 10 Sudoeste 23 Oeste 0 965.7 0.4 58
2017-11-08 00:00:00 9 11 Sudoeste 24 Oeste 0 965.3 0.8 53
2017-11-07 23:00:00 9.9 10 Oeste 35 Oeste 0 965.3 1.2 48
2017-11-07 22:00:00 10.2 14 Oeste 25 Oeste 0 965.3 1.5 48
2017-11-07 21:00:00 11 14 Oeste 46 Noroeste 0 964.5 1.7 44
2017-11-07 20:00:00 12.7 22 Noroeste 41 Oeste 0 964.1 1.6 38
2017-11-07 19:00:00 13 17 Noroeste 31 Noroeste 0 963.8 1.2 27
2017-11-07 18:00:00 13.3 5 Noroeste 23 Noroeste 0 962.8 0 17
2017-11-07 17:00:00 15.4 15 Noroeste 33 Oeste 0 962.5 -0.6 13
2017-11-07 16:00:00 15.8 19 Noroeste 41 Noroeste 0 962.6 -1.1 13
2017-11-07 15:00:00 15.3 17 Noroeste 36 Noroeste 0 962.8 -2 14
2017-11-07 14:00:00 14.5 19 Noroeste 35 Noroeste 0 963.1 -2.2 16
2017-11-07 13:00:00 13.2 14 Oeste 34 Noroeste 0 963.7 -1.8 23
2017-11-07 12:00:00 10.8 20 Noroeste 41 Oeste 0 964.8 -0.4 31
2017-11-07 11:00:00 9.4 22 Oeste 42 Noroeste 0 965.3 0.4 43
2017-11-07 10:00:00 8.2 18 Noroeste 34 Oeste 0 965.5 0.8 45
2017-11-07 09:00:00 6.5 12 Oeste 22 Noroeste 0 965.2 0.5 52
2017-11-07 08:00:00 4 8 Oeste 18 Sudoeste 0 964.9 0.4 63
2017-11-07 07:00:00 3.8 6 Sudoeste 21 Oeste 0 964.7 0.3 56
2017-11-07 06:00:00 4.2 8 Oeste 23 Oeste 0 964.7 0.1 53
2017-11-07 05:00:00 4.8 12 Oeste 28 Oeste 0 964.5 -0.1 57
2017-11-07 04:00:00 5.4 13 Oeste 33 Oeste 0 964.4 -0.3 60
2017-11-07 03:00:00 5.7 15 Oeste 37 Oeste 0 964.6 -0.1 63
2017-11-07 02:00:00 5.9 18 Oeste 38 Noroeste 0 964.6 -0.4 61
2017-11-07 01:00:00 6.2 22 Oeste 45 Noroeste 0 964.7 0 62
2017-11-07 00:00:00 6.5 26 Noroeste 50 Oeste 0 964.7 0.3 59
2017-11-06 23:00:00 6.9 28 Noroeste 49 Noroeste 0 965 0.3 60
2017-11-06 22:00:00 7.3 29 Noroeste 59 Oeste 0 964.7 0 58
2017-11-06 21:00:00 7.6 33 Oeste 60 Oeste 0 964.4 -0.1 57
2017-11-06 20:00:00 8.3 30 Noroeste 73 Noroeste 0 964.7 0.4 55
2017-11-06 19:00:00 8.7 27 Noroeste 63 Noroeste 0 964.7 0.6 58
2017-11-06 18:00:00 9.5 31 Oeste 69 Oeste 0 964.5 -0.1 52
2017-11-06 17:00:00 10.4 36 Noroeste 75 Noroeste 0 964.3 -0.7 48
2017-11-06 16:00:00 12 41 Noroeste 80 Noroeste 0 964.1 -1.9 42
2017-11-06 15:00:00 12.7 37 Noroeste 74 Noroeste 0 964.6 -2.2 38
2017-11-06 14:00:00 12.6 38 Noroeste -- -- 0 965 -2.1 39
2017-11-06 13:00:00 12.2 -- -- -- -- 0 966 -1 40
2017-11-06 12:00:00 11.6 -- -- -- -- 0 966.8 -0.6 42
2017-11-06 11:00:00 10.9 28 Oeste 75 Noroeste 0 967.1 0.1 47
2017-11-06 10:00:00 10.3 37 Oeste 70 Noroeste 0 967 0.3 47
2017-11-06 09:00:00 9.2 31 Noroeste -- -- 0 967.4 0.6 50
2017-11-06 08:00:00 8 -- -- -- -- 0 967 0.3 59
2017-11-06 07:00:00 7.9 -- -- -- -- 0 966.7 -0.2 61
2017-11-06 06:00:00 8.1 32 Oeste 62 Oeste 0 966.8 -0.6 62
2017-11-06 05:00:00 8.3 36 Oeste 66 Oeste 0 966.7 -0.8 62
2017-11-06 04:00:00 8.2 25 Oeste 53 Oeste 0 966.9 -0.4 63
2017-11-06 03:00:00 8.6 27 Oeste 54 Oeste 0 967.4 -0.3 66
2017-11-06 02:00:00 9.2 26 Oeste 52 Oeste 0 967.5 -0.4 62
2017-11-06 01:00:00 9.1 26 Oeste 51 Oeste 0 967.3 -0.5 63
2017-11-06 00:00:00 9.2 27 Oeste 49 Oeste 0 967.7 0.4 63
2017-11-05 23:00:00 9.3 26 Noroeste 44 Noroeste 0 967.9 0.7 61
2017-11-05 22:00:00 9.6 25 Noroeste 48 Noroeste 0 967.8 1 61
2017-11-05 21:00:00 9.8 27 Noroeste 48 Noroeste 0 967.3 1.1 59
2017-11-05 20:00:00 10.2 23 Noroeste 44 Oeste 0 967.2 1.3 59
2017-11-05 19:00:00 10.8 27 Noroeste 50 Noroeste 0 966.8 1.3 56
2017-11-05 18:00:00 11.7 27 Noroeste -- -- 0 966.2 0.8 51
2017-11-05 17:00:00 13 -- -- -- -- 0 965.9 0.3 48
2017-11-05 16:00:00 14 32 Noroeste -- -- 0 965.5 0.3 43
2017-11-05 15:00:00 14.5 -- -- -- -- 0 965.4 -0.1 41
2017-11-05 14:00:00 14.1 36 Oeste -- -- 0 965.6 -0.2 42
2017-11-05 13:00:00 14 36 Oeste 68 Oeste 0 965.2 -0.2 45
2017-11-05 12:00:00 13.5 37 Oeste 65 Oeste 0 965.5 0.6 47
2017-11-05 11:00:00 12.6 40 Oeste 67 Oeste 0 965.8 2 51
2017-11-05 10:00:00 12 35 Oeste 66 Noroeste 0 965.4 2.8 59
2017-11-05 09:00:00 11.5 27 Oeste 55 Oeste 0 964.9 3 63
2017-11-05 08:00:00 10.9 25 Oeste 54 Oeste 0 963.8 2.4 68
2017-11-05 07:00:00 11.3 28 Oeste 62 Oeste 0 962.6 1.7 69
2017-11-05 06:00:00 12 30 Oeste 64 Oeste 0 961.9 1.2 69
2017-11-05 05:00:00 12.3 30 Oeste 56 Oeste 0 961.4 0.9 72
2017-11-05 04:00:00 12.5 22 Oeste 51 Oeste 0 960.9 0.8 71
2017-11-05 03:00:00 12.4 20 Oeste 38 Oeste 0 960.7 1 72
2017-11-05 02:00:00 12.4 17 Oeste 40 Oeste 0 960.5 1.1 74
2017-11-05 01:00:00 12.9 22 Oeste 46 Oeste 0 960.1 1.2 74
2017-11-05 00:00:00 13.4 17 Oeste 32 Oeste 0 959.7 1.4 79
2017-11-04 23:00:00 13.9 17 Oeste 32 Noroeste 0 959.4 1.5 78
2017-11-04 22:00:00 13.6 12 Oeste 26 Oeste 0 958.9 1.2 72
2017-11-04 21:00:00 13.9 12 Oeste 26 Sudoeste 0 958.3 1.5 70
2017-11-04 20:00:00 13.8 7 Sudoeste 20 Sudoeste 0 957.9 1.1 74
2017-11-04 19:00:00 13.8 12 Sudoeste 24 Sudoeste 0 957.7 1.5 73
2017-11-04 18:00:00 14.1 7 Sur 14 Noroeste 0.2 956.8 0.6 80
2017-11-04 17:00:00 14.5 12 Noroeste 30 Oeste 1 956.8 0.2 84
2017-11-04 16:00:00 18.4 6 Noroeste 17 Noroeste 0 956.2 -1.2 54
2017-11-04 15:00:00 18.6 11 Norte 19 Norte 0 956.2 -1.9 51
2017-11-04 14:00:00 18.7 6 Norte -- -- 0 956.6 -1.9 54
2017-11-04 13:00:00 18.7 -- -- -- -- 0 957.4 -0.9 62
2017-11-04 12:00:00 19.1 -- -- -- -- 0 958.1 -0.1 51
2017-11-04 11:00:00 18.4 -- -- -- -- 0 958.5 1.1 61
2017-11-04 10:00:00 18.2 -- -- -- -- 0 958.3 1 66
2017-11-04 09:00:00 15.5 4 Sur 17 Sur 0 958.2 0.4 77
2017-11-04 08:00:00 12.9 10 Sur 17 Sudoeste 0 957.4 0 84
2017-11-04 07:00:00 12.3 4 Este 16 Sur 0.2 957.3 -0.2 89
2017-11-04 06:00:00 12.7 3 Este 27 Sudoeste 2.2 957.8 -0.3 87
2017-11-04 05:00:00 13.5 3 Este 8 Norte 0 957.4 -1 67
2017-11-04 04:00:00 13.3 3 Noroeste 7 Sudoeste 0 957.5 -1.2 70
2017-11-04 03:00:00 13.3 4 Sudoeste 17 Sudoeste 0 958.1 -1 68
2017-11-04 02:00:00 13.5 12 Sudoeste 19 Sudoeste 0 958.4 -1 67
2017-11-04 01:00:00 14 7 Oeste 13 Sudoeste 0 958.7 -1.1 66
2017-11-04 00:00:00 14.1 9 Sudoeste 15 Sudoeste 0 959.1 -0.4 62
2017-11-03 23:00:00 14.1 8 Sudoeste 15 Sudoeste 0 959.4 0.1 61
2017-11-03 22:00:00 13.3 10 Sudoeste 13 Sudoeste 0 959.8 0.5 63
2017-11-03 21:00:00 13.6 6 Sudoeste 12 Sudoeste 0 959.5 0.7 62
2017-11-03 20:00:00 13.3 0 Calma 8 Oeste 0 959.3 0.7 61
2017-11-03 19:00:00 14.4 5 Oeste 8 Oeste 0 959.3 0.4 58
2017-11-03 18:00:00 16.6 3 Oeste 13 Noroeste 0 958.8 0 53
2017-11-03 17:00:00 18.2 9 Noroeste 18 Noroeste 0 958.6 -0.6 51
2017-11-03 16:00:00 18.9 11 Noroeste -- -- 0 958.9 -1.2 49
2017-11-03 15:00:00 19.1 -- -- -- -- 0 958.8 -1.9 47
2017-11-03 14:00:00 19 -- -- -- -- 0 959.2 -1.8 46
2017-11-03 13:00:00 18.6 -- -- -- -- 0 960.1 -0.9 46
2017-11-03 12:00:00 17.7 -- -- -- -- 0 960.7 -0.1 50
2017-11-03 11:00:00 16.1 3 Este 6 Norte 0 961 0.5 54
2017-11-03 10:00:00 14.8 2 Sudeste 8 Sudeste 0 961 0.9 56
2017-11-03 09:00:00 12.4 3 Este 19 Sudoeste 0 960.8 0.3 65
2017-11-03 08:00:00 11.1 6 Sudoeste 20 Sudoeste 0 960.5 -0.4 70
2017-11-03 07:00:00 11.4 10 Sur 18 Sudoeste 0 960.1 -1.2 71
2017-11-03 06:00:00 11.4 8 Sudoeste 17 Sudoeste 0 960.5 -1.3 74
2017-11-03 05:00:00 10.9 4 Sur 12 Sudoeste 0 960.9 -1.3 78
2017-11-03 04:00:00 10.3 7 Sudoeste 9 Sudoeste 0 961.3 -1.3 84
2017-11-03 03:00:00 9.9 0 Calma 6 Oeste 0 961.8 -1.2 84
2017-11-03 02:00:00 11.3 4 Oeste 12 Sudoeste 0 962.2 -1 81
2017-11-03 01:00:00 12.1 6 Oeste 12 Sudoeste 0 962.6 -1 81
2017-11-03 00:00:00 12.9 6 Sudoeste 11 Oeste 0 963 -0.4 76
2017-11-02 23:00:00 13.5 5 Oeste 12 Oeste 0 963.2 -0.2 74
2017-11-02 22:00:00 13.3 9 Oeste 12 Oeste 0 963.6 0.6 74
2017-11-02 21:00:00 13.6 4 Oeste 8 Sudoeste 0 963.4 0.6 72
2017-11-02 20:00:00 14.9 4 Oeste 12 Oeste 0 963.4 0.4 68
2017-11-02 19:00:00 15.7 4 Oeste 9 Oeste 0 963 -0.1 64
2017-11-02 18:00:00 17.4 4 Oeste 11 Noroeste 0 962.8 -0.6 59
2017-11-02 17:00:00 18.2 6 Norte 19 Noroeste 0 963 -1.3 58
2017-11-02 16:00:00 18.8 11 Norte -- -- 0 963.1 -2 51
2017-11-02 15:00:00 19 -- -- -- -- 0 963.4 -2.6 51
2017-11-02 14:00:00 18.4 -- -- -- -- 0 964.3 -1.8 50
2017-11-02 13:00:00 16.9 4 Nordeste 13 Norte 0 965.1 -1.2 54
2017-11-02 12:00:00 16.7 6 Norte 10 Norte 0 966 0 54
2017-11-02 11:00:00 16.5 8 Sudeste 50 Sudoeste 0 966.1 0.4 52
2017-11-02 10:00:00 14.8 9 Sur 20 Sur 0 966.3 0.9 57
2017-11-02 09:00:00 13.5 8 Sudoeste 20 Sudoeste 0 966 0.4 63
2017-11-02 08:00:00 12.4 10 Sur 16 Sur 0 965.7 0 69
2017-11-02 07:00:00 11.9 8 Sur 14 Sudoeste 0 965.4 -0.4 73
2017-11-02 06:00:00 11.4 3 Sudoeste 12 Sudoeste 0 965.6 -0.3 77
2017-11-02 05:00:00 11.4 4 Oeste 17 Sudoeste 0 965.7 -0.4 71
2017-11-02 04:00:00 12.8 8 Oeste 15 Sur 0 965.8 -0.7 67
2017-11-02 03:00:00 13.5 5 Oeste 21 Sudoeste 0 965.9 -1 73
2017-11-02 02:00:00 14.2 5 Sudoeste 15 Sudoeste 0 966.1 -0.8 72
2017-11-02 01:00:00 14.9 7 Sur 21 Sur 0 966.5 -0.2 70
2017-11-02 00:00:00 15.1 7 Sur 21 Sudeste 0 966.9 0.5 71
2017-11-01 23:00:00 15.4 9 Sur 21 Sur 0 966.9 0.8 70
2017-11-01 22:00:00 16 7 Sur 23 Sudeste 0 966.7 0.4 67
2017-11-01 21:00:00 16.8 13 Sur 35 Sudeste 0 966.4 0.6 64
2017-11-01 20:00:00 16.8 12 Sudeste 29 Sudeste 0 966.1 0.4 64
2017-11-01 19:00:00 16.1 3 Sur 10 Oeste 0 966.3 0.4 62
2017-11-01 18:00:00 18.1 5 Norte 19 Nordeste 0 965.8 -0.3 56
2017-11-01 17:00:00 19.8 11 Norte 24 Norte 0 965.7 -1.2 48
2017-11-01 16:00:00 20.1 -- -- -- -- 0 965.9 -1.7 46
2017-11-01 15:00:00 20 -- -- -- -- 0 966.1 -2.4 46
2017-11-01 14:00:00 19.9 -- -- -- -- 0 966.9 -1.9 44
2017-11-01 13:00:00 18.3 -- -- -- -- 0 967.6 -1.4 49
2017-11-01 12:00:00 16.6 -- -- -- -- 0 968.5 -0.3 55
2017-11-01 11:00:00 14.6 6 Norte 11 Noroeste 0 968.8 0.7 62
2017-11-01 10:00:00 12.6 4 Norte 10 Nordeste 0 969 1.5 68
2017-11-01 09:00:00 10.7 3 Norte 6 Norte 0 968.8 1.5 76
2017-11-01 08:00:00 8.3 0 Calma 6 Oeste 0 968.1 0.5 84
2017-11-01 07:00:00 8.6 5 Oeste 7 Noroeste 0 967.5 -0.3 84
2017-11-01 06:00:00 9.9 2 Sudoeste 4 Sudoeste 0 967.3 -0.3 80
2017-11-01 05:00:00 10.9 2 Sudeste 10 Noroeste 0 967.6 0 77
2017-11-01 04:00:00 12.1 6 Norte 13 Sudeste 0 967.8 0.3 76
2017-11-01 03:00:00 13.1 7 Sudeste 17 Sudeste 0 967.6 -0.2 76
2017-11-01 02:00:00 12.9 3 Nordeste 21 Sur 0 967.6 -0.4 76
2017-11-01 01:00:00 13.4 7 Sudeste 21 Sur 0 967.5 -0.4 76
2017-11-01 00:00:00 12.7 3 Nordeste 18 Sudeste 0 967.8 0 79
2017-10-31 23:00:00 12.5 5 Sudeste 13 Este 0 968 0.4 80
2017-10-31 22:00:00 10.6 4 Nordeste 9 Nordeste 0 967.9 0.5 74
2017-10-31 21:00:00 10 2 Oeste 10 Oeste 0 967.8 0.8 60
2017-10-31 20:00:00 11.1 4 Oeste 9 Oeste 0 967.6 0.9 56
2017-10-31 19:00:00 12.1 7 Oeste 9 Oeste 0 967.4 0.6 52
2017-10-31 18:00:00 15.3 2 Norte 48 Sudoeste 0 967 -0.1 45
2017-10-31 17:00:00 16.6 8 Norte 15 Norte 0 966.7 -0.9 40
2017-10-31 16:00:00 17.1 6 Nordeste 21 Norte 0 966.8 -1.2 39
2017-10-31 15:00:00 16.7 7 Norte 21 Norte 0 967.1 -1.6 39
2017-10-31 14:00:00 15.7 6 Norte 19 Este 0 967.6 -1.8 42
2017-10-31 13:00:00 14.7 6 Norte 15 Nordeste 0 968 -1.3 44
2017-10-31 12:00:00 13.8 3 Norte 11 Noroeste 0 968.7 -0.1 46
2017-10-31 11:00:00 13 3 Este 13 Este 0 969.4 1.2 49
2017-10-31 10:00:00 11.7 5 Sur 14 Sudoeste 0 969.3 1.5 52
2017-10-31 09:00:00 8.9 11 Sudoeste 16 Sudoeste 0 968.8 0.9 62
2017-10-31 08:00:00 6.7 11 Sudoeste 18 Sudoeste 0 968.2 0.4 72
2017-10-31 07:00:00 6.2 8 Sur 14 Sudoeste 0 967.8 0.4 73
2017-10-31 06:00:00 6.8 4 Sudoeste 12 Sudoeste 0 967.9 0.2 69
2017-10-31 05:00:00 7.7 6 Oeste 17 Oeste 0 967.8 -0.1 66
2017-10-31 04:00:00 8.2 10 Sudoeste 21 Sudoeste 0 967.4 -0.6 64
2017-10-31 03:00:00 8.1 9 Sudoeste 17 Sudoeste 0 967.7 0 67
2017-10-31 02:00:00 8.3 8 Sudoeste 15 Sudoeste 0 967.9 0.4 67
2017-10-31 01:00:00 9.4 9 Sudoeste 16 Sudoeste 0 968 1 66
2017-10-31 00:00:00 9.6 8 Sudoeste 14 Sudoeste 0 967.7 1.5 66
2017-10-30 23:00:00 9.9 7 Oeste 16 Oeste 0 967.5 2 68
2017-10-30 22:00:00 11.2 8 Oeste 22 Oeste 0 967 2.4 63
2017-10-30 21:00:00 12.4 9 Oeste 22 Oeste 0 966.2 2.5 59
2017-10-30 20:00:00 13.6 13 Oeste 34 Noroeste 0 965.5 2.4 56
2017-10-30 19:00:00 14.9 13 Oeste 28 Oeste 0 964.6 1.7 53
2017-10-30 18:00:00 16.6 13 Noroeste 33 Noroeste 0 963.7 0.9 47
2017-10-30 17:00:00 17.9 15 Noroeste 32 Noroeste 0 963.1 0.1 44
2017-10-30 16:00:00 19.3 15 Noroeste 32 Oeste 0 962.9 -0.6 41
2017-10-30 15:00:00 19.2 22 Noroeste 39 Noroeste 0 962.8 -1.3 42
2017-10-30 14:00:00 19.1 17 Noroeste 33 Noroeste 0 963 -1.6 43
2017-10-30 13:00:00 18 17 Noroeste 33 Oeste 0 963.5 -1.4 47
2017-10-30 12:00:00 17 19 Noroeste 34 Noroeste 0 964.1 -0.8 50
2017-10-30 11:00:00 15.8 17 Oeste 36 Noroeste 0 964.6 0 55
2017-10-30 10:00:00 14.7 15 Oeste 33 Oeste 0 964.9 0.3 59
2017-10-30 09:00:00 13.8 15 Oeste 31 Oeste 0 964.9 0.2 61
2017-10-30 08:00:00 13.3 11 Oeste 28 Oeste 0 964.6 -0.2 63
2017-10-30 07:00:00 12.8 13 Oeste 30 Oeste 0 964.6 -0.3 64
2017-10-30 06:00:00 13.3 18 Oeste 36 Oeste 0 964.7 -0.6 65
2017-10-30 05:00:00 13.7 15 Oeste 29 Oeste 0 964.8 -0.9 64
2017-10-30 04:00:00 13.6 15 Oeste 33 Oeste 0 964.9 -1 64
2017-10-30 03:00:00 13.1 12 Oeste 28 Oeste 0 965.3 -1 66
2017-10-30 02:00:00 11.9 8 Oeste 22 Oeste 0 965.7 -0.9 70
2017-10-30 01:00:00 12.2 8 Oeste 19 Oeste 0 965.9 -1.2 68
2017-10-30 00:00:00 12.1 9 Oeste 25 Oeste 0 966.3 -0.9 68
2017-10-29 23:00:00 12.3 12 Oeste 26 Oeste 0 966.6 -0.3 67
2017-10-29 22:00:00 12.3 11 Oeste 24 Oeste 0 967.1 0.6 65
2017-10-29 21:00:00 13.4 13 Oeste 28 Oeste 0 967.2 1 60
2017-10-29 20:00:00 14.2 12 Oeste 28 Noroeste 0 966.9 0.7 56
2017-10-29 19:00:00 15.1 6 Noroeste 27 Noroeste 0 966.5 0.1 45
2017-10-29 18:00:00 17.1 12 Noroeste 26 Noroeste 0 966.2 -0.4 37
2017-10-29 17:00:00 19 16 Noroeste 28 Oeste 0 966.2 -1.2 32
2017-10-29 16:00:00 19.4 15 Noroeste 31 Noroeste 0 966.4 -1.8 30
2017-10-29 15:00:00 19.6 15 Noroeste 30 Noroeste 0 966.6 -2.7 29
2017-10-29 14:00:00 19.2 14 Noroeste 28 Noroeste 0 967.4 -2.5 30
2017-10-29 13:00:00 18 14 Noroeste 30 Noroeste 0 968.2 -2.1 33
2017-10-29 12:00:00 16.5 14 Noroeste 28 Noroeste 0 969.3 -1 36
2017-10-29 11:00:00 15.2 13 Noroeste 29 Oeste 0 969.9 -0.1 36
2017-10-29 10:00:00 13.8 14 Oeste 26 Oeste 0 970.3 0.6 38
2017-10-29 09:00:00 12 10 Oeste 18 Oeste 0 970.3 0.7 44
2017-10-29 08:00:00 8.4 9 Sudoeste 13 Sudoeste 0 970 0.6 56
2017-10-29 07:00:00 7.5 8 Sudoeste 18 Sudoeste 0 969.7 0.3 60
2017-10-29 06:00:00 7.4 5 Sudoeste 12 Sudoeste 0 969.6 -0.3 61
2017-10-29 05:00:00 8.5 10 Sudoeste 15 Sudoeste 0 969.4 -0.9 62
2017-10-29 04:00:00 9 10 Sudoeste 16 Sudoeste 0 969.4 -1.2 64
2017-10-29 03:00:00 9.4 7 Sudoeste 12 Sudoeste 0 969.9 -1 64
2017-10-29 02:00:00 10.4 8 Sudoeste 15 Sudoeste 0 970.3 -0.7 62
2017-10-29 01:00:00 11.3 9 Sudoeste 15 Sudoeste 0 970.9 0.2 63
2017-10-29 00:00:00 11.2 6 Oeste 17 Sudoeste 0 971 0 65
2017-10-28 23:00:00 12.1 5 Oeste 14 Oeste 0 970.8 0 62
2017-10-28 22:00:00 13.3 8 Oeste 23 Oeste 0 970.7 0.5 57
2017-10-28 21:00:00 14.4 8 Oeste 19 Noroeste 0 971 1.3 55
2017-10-28 20:00:00 15.7 7 Noroeste 19 Noroeste 0 970.8 1.2 51
2017-10-28 19:00:00 17.5 15 Noroeste 31 Noroeste 0 970.2 0.3 43
2017-10-28 18:00:00 20.1 16 Noroeste 30 Noroeste 0 969.7 -0.6 35
2017-10-28 17:00:00 20.7 16 Noroeste 30 Oeste 0 969.6 -1.5 35
2017-10-28 16:00:00 20.9 14 Noroeste 26 Norte 0 969.9 -2 37
2017-10-28 15:00:00 20.3 15 Noroeste 29 Noroeste 0 970.3 -2 40
2017-10-28 14:00:00 19.5 14 Noroeste 32 Noroeste 0 971.1 -1.6 43
2017-10-28 13:00:00 18.5 14 Noroeste 33 Noroeste 0 971.9 -1.1 48
2017-10-28 12:00:00 17.6 15 Noroeste 28 Sudoeste 0 972.3 -0.2 52
2017-10-28 11:00:00 16.5 17 Oeste 28 Oeste 0 972.7 0.5 55
2017-10-28 10:00:00 15 12 Oeste 25 Sudoeste 0 973 0.9 61
2017-10-28 09:00:00 13 12 Sudoeste 20 Sudoeste 0 972.5 0.2 70
2017-10-28 08:00:00 12.7 9 Oeste 18 Oeste 0 972.2 0 70
2017-10-28 07:00:00 13.5 12 Oeste 31 Oeste 0 972.1 -0.3 66
2017-10-28 06:00:00 14 16 Oeste 36 Oeste 0 972.3 -0.4 64
2017-10-28 05:00:00 14.3 14 Oeste 38 Oeste 0 972.2 -0.8 63
2017-10-28 04:00:00 15 21 Oeste 43 Oeste 0 972.4 -0.7 64
2017-10-28 03:00:00 15.3 20 Oeste 40 Oeste 0 972.7 -0.8 62
2017-10-28 02:00:00 15.3 17 Oeste 36 Oeste 0 973 -0.2 60
2017-10-28 01:00:00 15.5 19 Oeste 38 Oeste 0 973.1 0 60
2017-10-28 00:00:00 15.8 17 Oeste 35 Oeste 0 973.5 0.4 58
2017-10-27 23:00:00 16.3 18 Oeste 44 Oeste 0 973.2 0.2 56
2017-10-27 22:00:00 16.8 16 Oeste 56 Oeste 0 973.1 0.6 55
2017-10-27 21:00:00 17.5 23 Oeste 47 Oeste 0 973.1 1.1 53
2017-10-27 20:00:00 18.1 20 Oeste 44 Oeste 0 973 1.6 52
2017-10-27 19:00:00 19.7 21 Noroeste 48 Oeste 0 972.5 1 47
2017-10-27 18:00:00 22.2 22 Noroeste 48 Noroeste 0 972 0 38
2017-10-27 17:00:00 23.5 28 Noroeste 50 Noroeste 0 971.4 -1.6 33
2017-10-27 16:00:00 24.1 28 Noroeste 50 Noroeste 0 971.5 -2.4 31
2017-10-27 15:00:00 24.4 26 Noroeste 47 Noroeste 0 972 -2.1 30
2017-10-27 14:00:00 23.9 26 Noroeste 44 Noroeste 0 973 -1.1 30
2017-10-27 13:00:00 23.6 26 Noroeste 51 Oeste 0 973.9 -0.2 30
2017-10-27 12:00:00 23.4 22 Noroeste 38 Oeste 0 974.1 0.3 28
2017-10-27 11:00:00 21.4 14 Oeste 33 Sudoeste 0 974.1 0.6 32
2017-10-27 10:00:00 19.2 13 Sudoeste 26 Sudoeste 0 974.1 0.7 34
2017-10-27 09:00:00 14.9 18 Sudoeste 29 Sudoeste 0 973.8 0.6 43
2017-10-27 08:00:00 15.2 18 Sudoeste 25 Sudoeste 0 973.5 0.1 41
2017-10-27 07:00:00 15.7 15 Sudoeste 31 Sudoeste 0 973.4 -0.3 40
2017-10-27 06:00:00 15.5 21 Sudoeste 30 Sudoeste 0 973.2 -0.7 39
2017-10-27 05:00:00 15.7 19 Sudoeste 30 Sudoeste 0 973.4 -0.7 41
2017-10-27 04:00:00 16.3 18 Sudoeste 28 Sudoeste 0 973.7 -0.4 40
2017-10-27 03:00:00 16.7 20 Sudoeste 30 Sudoeste 0 973.9 -0.2 39
2017-10-27 02:00:00 16.6 12 Sur 24 Sudoeste 0 974.1 0.2 40
2017-10-27 01:00:00 18.1 16 Sudoeste 24 Sur 0 974.1 0.5 35
2017-10-27 00:00:00 17.7 14 Sur 23 Sur 0 974.1 0.6 36
2017-10-26 23:00:00 17.9 10 Sudoeste 21 Sudoeste 0 973.9 1 37
2017-10-26 22:00:00 17.6 6 Sudoeste 15 Sudoeste 0 973.6 1.3 39
2017-10-26 21:00:00 18.2 4 Sur 14 Oeste 0 973.5 1.4 40
2017-10-26 20:00:00 19 10 Oeste 13 Oeste 0 972.9 0.9 38
2017-10-26 19:00:00 24.2 2 Nordeste 6 Norte 0 972.3 0.3 28
2017-10-26 18:00:00 25.8 4 Norte 12 Norte 0 972.1 -0.2 24
2017-10-26 17:00:00 26.2 4 Nordeste 14 Norte 0 972 -0.7 24
2017-10-26 16:00:00 25.8 6 Norte 22 Noroeste 0 972 -1.1 23
2017-10-26 15:00:00 25.1 8 Norte 16 Este 0 972.3 -0.8 25
2017-10-26 14:00:00 24.3 4 Nordeste 14 Norte 0 972.7 -0.2 30
2017-10-26 13:00:00 23 5 Norte 13 Nordeste 0 973.1 0.6 32
2017-10-26 12:00:00 22.9 4 Nordeste 13 Sudoeste 0 973.1 1 31
2017-10-26 11:00:00 20.7 8 Sudoeste 17 Sudoeste 0 972.9 1.1 30
2017-10-26 10:00:00 17.3 10 Sudoeste 22 Sudoeste 0 972.5 0.8 39
2017-10-26 09:00:00 14.3 15 Sudoeste 22 Sudoeste 0 972.1 0.9 48
2017-10-26 08:00:00 13.3 5 Sudoeste 16 Sudoeste 0 971.8 0.5 50
2017-10-26 07:00:00 14.1 12 Sudoeste 18 Sudoeste 0 971.7 0.4 50
2017-10-26 06:00:00 14.2 9 Sudoeste 17 Sudoeste 0 971.2 -0.1 51
2017-10-26 05:00:00 14.7 8 Sudoeste 15 Sudoeste 0 971.3 0.2 51
2017-10-26 04:00:00 15 7 Sudoeste 16 Sudoeste 0 971.3 -0.1 52
2017-10-26 03:00:00 15.7 8 Sudoeste 17 Sudoeste 0 971.3 -0.1 51
2017-10-26 02:00:00 16.5 10 Sudoeste 17 Sudoeste 0 971.1 -0.1 50
2017-10-26 01:00:00 16.4 11 Sudoeste 17 Sudoeste 0 971.4 0.7 48
2017-10-26 00:00:00 15.8 6 Oeste 14 Sudoeste 0 971.4 1 48
2017-10-25 23:00:00 16.7 8 Sudoeste 17 Sudoeste 0 971.2 1.1 43
2017-10-25 22:00:00 16.3 5 Sudoeste 11 Sudoeste 0 970.7 0.9 46
2017-10-25 21:00:00 17.9 6 Oeste 10 Oeste 0 970.4 1 44
2017-10-25 20:00:00 19.8 8 Oeste 12 Oeste 0 970.1 0.8 37
2017-10-25 19:00:00 23.2 4 Noroeste 13 Norte 0 969.8 0.6 29
2017-10-25 18:00:00 24.7 7 Norte 16 Norte 0 969.4 0 26
2017-10-25 17:00:00 24.8 10 Norte 20 Nordeste 0 969.3 -0.7 25
2017-10-25 16:00:00 24.4 12 Norte 25 Norte 0 969.2 -1.3 24
2017-10-25 15:00:00 24.4 9 Norte 18 Norte 0 969.4 -1.2 24
2017-10-25 14:00:00 23.4 8 Norte 23 Norte 0 970 -0.6 27
2017-10-25 13:00:00 24.4 10 Norte 18 Norte 0 970.5 0 24
2017-10-25 12:00:00 24 3 Sudeste 13 Sudeste 0 970.6 0.5 24
2017-10-25 11:00:00 21 6 Sudeste 11 Sudeste 0 970.6 0.8 28
2017-10-25 10:00:00 17.3 6 Sur 17 Sudoeste 0 970.5 0.9 35
2017-10-25 09:00:00 14.1 12 Sudoeste 21 Sudoeste 0 970.1 0.6 42
2017-10-25 08:00:00 12.9 12 Sudoeste 19 Sudoeste 0 969.8 0.1 45
2017-10-25 07:00:00 13 14 Sudoeste 18 Sudoeste 0 969.6 -0.2 44
2017-10-25 06:00:00 13.2 12 Sudoeste 21 Sudoeste 0 969.5 -0.3 43
2017-10-25 05:00:00 13.4 6 Sudoeste 18 Sudoeste 0 969.7 0.1 39
2017-10-25 04:00:00 14.3 12 Sudoeste 19 Sudoeste 0 969.8 0.2 38
2017-10-25 03:00:00 14.4 9 Sudoeste 14 Sudoeste 0 969.8 0.2 35
2017-10-25 02:00:00 15.1 6 Sudoeste 12 Sudoeste 0 969.6 0.3 33
2017-10-25 01:00:00 16.8 8 Sudoeste 20 Sudoeste 0 969.6 0.5 29
2017-10-25 00:00:00 17 9 Sudoeste 20 Sudoeste 0 969.6 0.4 28